Time;durP1;ratioP1;P1;durP2;ratioP2;P2;SDS_P1;SDS_P2;PMS_P1;PMS_P2;Temp;Humidity;BMP_temperature;BMP_pressure;BME280_temperature;BME280_humidity;BME280_pressure;Samples;Min_cycle;Max_cycle;Signal;HPM_P1;HPM_P2
2022/10/15 00:00:29;;;;;;;21.88;15.57;;;11.50;99.90;;;;;;5068060;28;20116;-59
2022/10/15 00:02:55;;;;;;;22.90;17.05;;;11.40;99.90;;;;;;5060455;28;20029;-55
2022/10/15 00:05:21;;;;;;;19.90;16.33;;;11.30;99.90;;;;;;5067983;28;20029;-53
2022/10/15 00:07:47;;;;;;;27.63;17.85;;;11.40;99.90;;;;;;5063080;28;20499;-62
2022/10/15 00:10:13;;;;;;;22.95;17.27;;;11.50;99.90;;;;;;5059362;28;20025;-56
2022/10/15 00:12:40;;;;;;;24.80;17.73;;;11.50;99.90;;;;;;5066746;28;20032;-59
2022/10/15 00:15:07;;;;;;;23.73;17.70;;;11.50;99.90;;;;;;5055499;28;20377;-59
2022/10/15 00:17:34;;;;;;;31.40;19.52;;;11.60;99.90;;;;;;5075279;28;20407;-58
2022/10/15 00:20:00;;;;;;;27.17;17.92;;;11.40;99.90;;;;;;5066264;28;20032;-59
2022/10/15 00:22:26;;;;;;;27.20;19.75;;;;;;;;;;5068106;28;20388;-58
2022/10/15 00:24:52;;;;;;;30.50;21.83;;;11.00;99.90;;;;;;5069498;28;20374;-58
2022/10/15 00:27:18;;;;;;;24.85;17.92;;;11.20;99.90;;;;;;5067334;28;20029;-59
2022/10/15 00:29:43;;;;;;;24.73;17.02;;;11.20;99.90;;;;;;5079054;28;20040;-55
2022/10/15 00:32:09;;;;;;;25.23;17.05;;;11.20;99.90;;;;;;5040495;28;20040;-60
2022/10/15 00:34:35;;;;;;;25.65;15.45;;;;;;;;;;5086935;28;20040;-57
2022/10/15 00:37:01;;;;;;;24.27;16.08;;;11.60;99.90;;;;;;5082482;28;20148;-62
2022/10/15 00:39:27;;;;;;;20.35;14.70;;;10.50;99.90;;;;;;5067913;28;20442;-61
2022/10/15 00:41:53;;;;;;;20.42;16.77;;;;;;;;;;5076739;28;20032;-59
2022/10/15 00:44:24;;;;;;;29.45;17.63;;;10.40;99.90;;;;;;5084918;28;20031;-53
2022/10/15 00:46:53;;;;;;;25.70;18.20;;;10.40;99.90;;;;;;5070745;28;20036;-57
2022/10/15 00:49:39;;;;;;;24.38;15.65;;;10.50;99.90;;;;;;5069764;28;20048;-59
2022/10/15 00:52:39;;;;;;;23.45;17.20;;;10.60;99.90;;;;;;5068577;28;20033;-63
2022/10/15 00:55:18;;;;;;;25.20;16.55;;;10.50;99.90;;;;;;5069798;28;20384;-56
2022/10/15 00:57:48;;;;;;;21.23;15.45;;;10.60;99.90;;;;;;5063992;28;20045;-56
2022/10/15 01:00:14;;;;;;;21.73;16.58;;;10.80;99.90;;;;;;5057846;28;20452;-62
2022/10/15 01:02:41;;;;;;;25.48;16.88;;;10.90;99.90;;;;;;5079536;28;20033;-59
2022/10/15 01:05:08;;;;;;;20.90;15.93;;;10.90;99.90;;;;;;5072141;28;20056;-59
2022/10/15 01:07:33;;;;;;;24.55;16.55;;;10.50;99.90;;;;;;5082988;28;20068;-56
2022/10/15 01:10:00;;;;;;;23.58;16.52;;;10.60;99.90;;;;;;5074063;28;20065;-60
2022/10/15 01:12:38;;;;;;;26.48;17.63;;;10.50;99.90;;;;;;5067246;28;20028;-57
2022/10/15 01:15:08;;;;;;;27.98;16.90;;;10.30;99.90;;;;;;5066902;28;20029;-56
2022/10/15 01:17:34;;;;;;;24.13;17.38;;;10.20;99.90;;;;;;5065528;28;20044;-57
2022/10/15 01:20:23;;;;;;;25.77;17.30;;;10.40;99.90;;;;;;5069564;28;20037;-57
2022/10/15 01:23:03;;;;;;;27.45;18.20;;;10.80;99.90;;;;;;5042037;28;20040;-64
2022/10/15 01:25:51;;;;;;;32.53;18.70;;;11.00;99.90;;;;;;5025384;28;20042;-56
2022/10/15 01:28:35;;;;;;;25.10;17.70;;;11.10;99.90;;;;;;5043436;28;20037;-55
2022/10/15 01:31:15;;;;;;;27.75;18.60;;;11.00;99.90;;;;;;5038032;28;20544;-61
2022/10/15 01:33:45;;;;;;;28.77;17.83;;;10.70;99.90;;;;;;5037264;28;20034;-58
2022/10/15 01:36:36;;;;;;;28.60;18.58;;;10.60;99.90;;;;;;5043240;28;20201;-59
2022/10/15 01:39:18;;;;;;;21.15;16.25;;;10.60;99.90;;;;;;5044860;28;20029;-62
2022/10/15 01:41:51;;;;;;;25.33;16.85;;;10.20;99.90;;;;;;5044803;28;20125;-55
2022/10/15 01:44:39;;;;;;;26.25;17.85;;;10.20;99.90;;;;;;5042440;28;20060;-55
2022/10/15 01:47:17;;;;;;;23.92;17.83;;;10.10;99.90;;;;;;5046815;28;20026;-56
2022/10/15 01:49:45;;;;;;;27.05;18.90;;;10.20;99.90;;;;;;5043421;28;20048;-62
2022/10/15 01:52:20;;;;;;;26.30;17.38;;;10.20;99.90;;;;;;5040502;28;20084;-59
2022/10/15 01:54:48;;;;;;;25.38;17.35;;;10.30;99.90;;;;;;5045156;28;20037;-58
2022/10/15 01:57:15;;;;;;;23.17;16.63;;;10.30;99.90;;;;;;5033954;28;20050;-59
2022/10/15 01:59:42;;;;;;;24.77;16.92;;;10.30;99.90;;;;;;5024172;28;20118;-59
2022/10/15 02:02:08;;;;;;;25.63;17.10;;;10.50;99.90;;;;;;5069253;28;20118;-56
2022/10/15 02:04:34;;;;;;;23.48;17.70;;;10.50;99.90;;;;;;5067209;28;20103;-59
2022/10/15 02:07:02;;;;;;;22.80;16.33;;;10.40;99.90;;;;;;5066931;28;20035;-59
2022/10/15 02:09:53;;;;;;;21.52;16.13;;;10.30;99.90;;;;;;5080546;28;20036;-58
2022/10/15 02:12:41;;;;;;;21.10;15.70;;;10.20;99.90;;;;;;5042729;28;20100;-59
2022/10/15 02:15:21;;;;;;;23.15;15.75;;;9.90;99.90;;;;;;5039058;28;20032;-60
2022/10/15 02:17:59;;;;;;;;;;;9.80;99.90;;;;;;5047010;28;20091;-56
2022/10/15 02:20:30;;;;;;;;;;;9.70;99.90;;;;;;5046363;28;19928;-57
2022/10/15 02:23:02;;;;;;;;;;;9.70;99.90;;;;;;5040817;28;20368;-56
2022/10/15 02:25:28;;;;;;;;;;;9.70;99.90;;;;;;5041871;28;19928;-57
2022/10/15 02:27:56;;;;;;;24.67;17.08;;;10.10;99.90;;;;;;5042254;28;20425;-59
2022/10/15 02:30:23;;;;;;;53.55;34.28;;;10.30;99.90;;;;;;5042684;28;20033;-59
2022/10/15 02:32:53;;;;;;;238.10;200.23;;;10.50;99.90;;;;;;5044319;28;20021;-54
2022/10/15 02:35:21;;;;;;;112.07;54.10;;;10.50;99.90;;;;;;5042920;28;20116;-60
2022/10/15 02:37:50;;;;;;;24.67;17.10;;;10.60;99.90;;;;;;5042306;28;20084;-63
2022/10/15 02:40:16;;;;;;;25.80;18.23;;;10.60;99.90;;;;;;5038859;28;20213;-58
2022/10/15 02:42:41;;;;;;;27.05;18.60;;;10.60;99.90;;;;;;5002861;28;20128;-58
2022/10/15 02:45:08;;;;;;;27.00;17.83;;;10.60;99.90;;;;;;5000971;28;20045;-61
2022/10/15 02:47:33;;;;;;;28.70;18.35;;;10.50;99.90;;;;;;4987131;28;20033;-55
2022/10/15 02:49:59;;;;;;;27.67;18.13;;;10.30;99.90;;;;;;5062287;28;20506;-61
2022/10/15 02:52:25;;;;;;;25.30;17.42;;;10.20;99.90;;;;;;5067925;28;20029;-55
2022/10/15 02:54:50;;;;;;;25.10;17.40;;;10.00;99.90;;;;;;5066755;28;20068;-59
2022/10/15 02:57:16;;;;;;;24.35;17.63;;;10.10;99.90;;;;;;5065849;28;20036;-58
2022/10/15 02:59:42;;;;;;;29.58;19.08;;;10.20;99.90;;;;;;5068515;28;20033;-60
2022/10/15 03:02:08;;;;;;;21.65;17.23;;;10.30;99.90;;;;;;5064352;28;20036;-60
2022/10/15 03:04:33;;;;;;;24.58;17.77;;;10.30;99.90;;;;;;5069655;28;20115;-57
2022/10/15 03:06:59;;;;;;;27.73;18.20;;;10.30;99.90;;;;;;5067639;28;20480;-65
2022/10/15 03:09:25;;;;;;;35.22;18.08;;;10.20;99.90;;;;;;5056677;28;20071;-55
2022/10/15 03:11:50;;;;;;;27.77;18.45;;;10.10;99.90;;;;;;5065366;28;20037;-59
2022/10/15 03:14:16;;;;;;;23.00;17.02;;;10.30;99.90;;;;;;5066985;28;20033;-58
2022/10/15 03:16:42;;;;;;;28.88;17.35;;;10.30;99.90;;;;;;5069813;28;20480;-63
2022/10/15 03:19:07;;;;;;;27.60;16.85;;;10.30;99.90;;;;;;5056462;28;20127;-61
2022/10/15 03:21:33;;;;;;;27.58;16.90;;;10.40;99.90;;;;;;5065347;28;20028;-59
2022/10/15 03:23:59;;;;;;;28.58;17.63;;;10.30;99.90;;;;;;5081188;28;20028;-63
2022/10/15 03:26:25;;;;;;;28.83;18.08;;;10.20;99.90;;;;;;5061020;28;20492;-61
2022/10/15 03:28:51;;;;;;;26.92;17.17;;;10.20;99.90;;;;;;5065545;28;20435;-60
2022/10/15 03:31:16;;;;;;;25.65;16.35;;;10.30;99.90;;;;;;5064443;28;20040;-55
2022/10/15 03:33:42;;;;;;;25.17;16.58;;;10.50;99.90;;;;;;5084368;28;20033;-56
2022/10/15 03:36:08;;;;;;;30.88;16.95;;;10.50;99.90;;;;;;5062366;28;20016;-57
2022/10/15 03:38:34;;;;;;;27.50;16.73;;;10.40;99.90;;;;;;5079362;28;20044;-56
2022/10/15 03:41:00;;;;;;;27.73;16.98;;;10.40;99.90;;;;;;5058684;28;20546;-55
2022/10/15 03:43:26;;;;;;;22.38;16.55;;;10.30;99.90;;;;;;5066431;28;20035;-61
2022/10/15 03:45:52;;;;;;;22.40;16.15;;;10.30;99.90;;;;;;5064324;28;20074;-57
2022/10/15 03:48:18;;;;;;;26.25;17.60;;;10.30;99.90;;;;;;5069742;28;20033;-59
2022/10/15 03:50:45;;;;;;;23.48;16.95;;;10.40;99.90;;;;;;5078930;28;20129;-57
2022/10/15 03:53:11;;;;;;;23.02;16.17;;;10.40;99.90;;;;;;5060883;28;20041;-57
2022/10/15 03:55:36;;;;;;;24.75;16.52;;;10.20;99.90;;;;;;5073121;28;20039;-51
2022/10/15 03:58:02;;;;;;;20.77;15.45;;;10.20;99.90;;;;;;5056084;28;20124;-56
2022/10/15 04:00:28;;;;;;;24.17;16.98;;;10.40;99.90;;;;;;5065327;28;20480;-60
2022/10/15 04:02:54;;;;;;;21.88;17.27;;;10.40;99.90;;;;;;5049919;28;20036;-56
2022/10/15 04:05:20;;;;;;;22.55;16.70;;;10.10;99.90;;;;;;5072898;28;20158;-57
2022/10/15 04:07:46;;;;;;;26.52;18.05;;;9.90;99.90;;;;;;5070102;28;20116;-59
2022/10/15 04:10:12;;;;;;;23.50;17.40;;;10.00;99.90;;;;;;5067750;28;20403;-57
2022/10/15 04:12:37;;;;;;;26.05;18.13;;;9.90;99.90;;;;;;5070549;28;20029;-54
2022/10/15 04:15:03;;;;;;;23.20;16.65;;;9.70;99.90;;;;;;5081926;28;20040;-55
2022/10/15 04:17:29;;;;;;;25.85;17.08;;;9.60;99.90;;;;;;5066916;28;20032;-59
2022/10/15 04:19:55;;;;;;;25.67;17.25;;;9.80;99.90;;;;;;5038856;28;20029;-59
2022/10/15 04:22:21;;;;;;;26.23;17.90;;;9.70;99.90;;;;;;5067928;28;20032;-56
2022/10/15 04:24:46;;;;;;;25.13;17.95;;;9.70;99.90;;;;;;5082939;28;20161;-57
2022/10/15 04:27:13;;;;;;;26.88;20.20;;;9.80;99.90;;;;;;5071862;28;20038;-57
2022/10/15 04:29:38;;;;;;;25.52;18.25;;;10.10;99.90;;;;;;5071649;28;20032;-53
2022/10/15 04:32:04;;;;;;;23.08;17.15;;;10.10;99.90;;;;;;5065933;28;20495;-59
2022/10/15 04:34:30;;;;;;;25.48;17.90;;;10.10;99.90;;;;;;5084312;28;20097;-56
2022/10/15 04:36:56;;;;;;;24.20;16.00;;;10.30;99.90;;;;;;5072304;28;20025;-55
2022/10/15 04:39:21;;;;;;;77.75;53.47;;;10.30;99.90;;;;;;5067151;28;20037;-62
2022/10/15 04:41:47;;;;;;;23.67;16.55;;;10.30;99.90;;;;;;5067846;28;20116;-62
2022/10/15 04:44:13;;;;;;;25.30;15.65;;;10.20;99.90;;;;;;5061609;28;20021;-55
2022/10/15 04:46:39;;;;;;;21.27;15.57;;;9.80;99.90;;;;;;5071537;28;20036;-53
2022/10/15 04:49:05;;;;;;;22.15;16.08;;;9.70;99.90;;;;;;5067094;28;20017;-56
2022/10/15 04:51:30;;;;;;;22.08;16.10;;;9.60;99.90;;;;;;5071275;28;20033;-56
2022/10/15 04:53:56;;;;;;;22.17;15.70;;;9.90;99.90;;;;;;5078885;28;20120;-62
2022/10/15 04:56:22;;;;;;;21.48;16.33;;;9.90;99.90;;;;;;5070390;28;20102;-63
2022/10/15 04:58:49;;;;;;;19.88;15.27;;;9.80;99.90;;;;;;5062772;28;20041;-59
2022/10/15 05:01:18;;;;;;;21.05;18.05;;;9.80;99.90;;;;;;5070583;28;20040;-56
2022/10/15 05:03:46;;;;;;;22.42;18.33;;;10.00;99.90;;;;;;5066753;28;20119;-60
2022/10/15 05:06:17;;;;;;;22.85;17.35;;;10.30;99.90;;;;;;5070657;28;20031;-55
2022/10/15 05:08:44;;;;;;;22.93;16.30;;;10.50;99.90;;;;;;5069706;28;20499;-58
2022/10/15 05:11:16;;;;;;;24.05;17.13;;;10.40;99.90;;;;;;5062534;28;20285;-58
2022/10/15 05:13:42;;;;;;;26.23;16.55;;;10.30;99.90;;;;;;5058739;28;20037;-53
2022/10/15 05:16:29;;;;;;;25.10;16.35;;;10.30;99.90;;;;;;5057607;28;20473;-55
2022/10/15 05:18:57;;;;;;;22.73;16.05;;;10.50;99.90;;;;;;5060043;28;20033;-61
2022/10/15 05:21:23;;;;;;;21.55;16.55;;;10.60;99.90;;;;;;5064089;28;20086;-58
2022/10/15 05:23:49;;;;;;;18.50;13.13;;;10.70;99.90;;;;;;5053725;28;20029;-55
2022/10/15 05:26:18;;;;;;;18.13;13.95;;;10.70;99.90;;;;;;5079622;28;20129;-54
2022/10/15 05:28:44;;;;;;;20.98;14.15;;;10.80;99.90;;;;;;5063774;28;20484;-57
2022/10/15 05:31:16;;;;;;;17.60;13.15;;;10.90;99.90;;;;;;5067443;28;20020;-55
2022/10/15 05:33:42;;;;;;;23.63;14.00;;;;;;;;;;5064798;28;20032;-62
2022/10/15 05:36:08;;;;;;;21.27;13.20;;;13.00;99.90;;;;;;5065059;28;20040;-59
2022/10/15 05:38:34;;;;;;;18.58;12.60;;;;;;;;;;5059833;28;20037;-54
2022/10/15 05:41:00;;;;;;;18.80;12.80;;;15.70;99.90;;;;;;5065681;28;20673;-60
2022/10/15 05:43:25;;;;;;;21.98;13.73;;;16.90;99.90;;;;;;5066545;28;20097;-56
2022/10/15 05:45:55;;;;;;;19.70;14.15;;;17.30;99.90;;;;;;5064035;28;20028;-50
2022/10/15 05:48:22;;;;;;;16.95;12.60;;;18.30;99.90;;;;;;5073503;28;20051;-47
2022/10/15 05:50:47;;;;;;;18.23;13.95;;;19.20;99.90;;;;;;5055186;28;20144;-51
2022/10/15 05:53:13;;;;;;;24.05;12.70;;;20.20;99.90;;;;;;5070054;28;20511;-48
2022/10/15 05:55:39;;;;;;;16.38;12.15;;;20.70;99.90;;;;;;5061880;28;20025;-53
2022/10/15 05:58:05;;;;;;;17.23;12.88;;;;;;;;;;5069093;28;20049;-51
2022/10/15 06:00:32;;;;;;;18.70;12.80;;;21.70;99.90;;;;;;5070596;28;20071;-51
2022/10/15 06:02:58;;;;;;;16.85;11.77;;;22.10;99.90;;;;;;5065894;28;20035;-53
2022/10/15 06:05:24;;;;;;;16.63;10.85;;;;;;;;;;5067448;28;20028;-53
2022/10/15 06:07:50;;;;;;;12.88;11.57;;;;;;;;;;5065541;28;20060;-53
2022/10/15 06:10:16;;;;;;;15.60;11.63;;;;;;;;;;5064817;28;20450;-50
2022/10/15 06:12:43;;;;;;;16.98;11.30;;;;;;;;;;5080907;28;20040;-50
2022/10/15 06:15:09;;;;;;;15.35;11.07;;;;;;;;;;5064093;28;20028;-51
2022/10/15 06:17:35;;;;;;;14.40;10.13;;;;;;;;;;5080273;28;20099;-54
2022/10/15 06:20:01;;;;;;;10.85;9.32;;;25.00;97.60;;;;;;5062285;28;20033;-50
2022/10/15 06:22:29;;;;;;;27.15;11.20;;;24.80;96.10;;;;;;5071249;28;20086;-49
2022/10/15 06:24:55;;;;;;;13.38;9.80;;;24.20;95.40;;;;;;5054766;28;20029;-49
2022/10/15 06:27:21;;;;;;;14.93;9.90;;;23.50;95.90;;;;;;5068371;28;20036;-51
2022/10/15 06:29:46;;;;;;;14.25;10.23;;;23.60;97.00;;;;;;5082043;28;20044;-49
2022/10/15 06:32:12;;;;;;;13.25;9.27;;;22.80;97.80;;;;;;5064474;28;20082;-49
2022/10/15 06:34:38;;;;;;;13.90;9.57;;;;;;;;;;5062092;28;20028;-51
2022/10/15 06:37:04;;;;;;;11.35;8.88;;;;;;;;;;5069358;28;20033;-49
2022/10/15 06:39:30;;;;;;;15.63;9.60;;;25.70;95.70;;;;;;5062268;28;20037;-51
2022/10/15 06:41:56;;;;;;;15.18;9.90;;;;;;;;;;5058013;28;20029;-50
2022/10/15 06:44:22;;;;;;;10.73;8.90;;;25.40;94.60;;;;;;5059442;28;20423;-52
2022/10/15 06:46:47;;;;;;;12.48;10.02;;;25.80;94.10;;;;;;5074374;28;20029;-50
2022/10/15 06:49:13;;;;;;;11.35;9.73;;;25.40;94.20;;;;;;5062742;28;20451;-50
2022/10/15 06:51:39;;;;;;;16.42;10.68;;;26.20;94.20;;;;;;5057137;28;20128;-52
2022/10/15 06:54:05;;;;;;;12.75;10.27;;;24.70;99.90;;;;;;5052615;28;20041;-49
2022/10/15 06:56:30;;;;;;;21.65;11.32;;;25.40;94.60;;;;;;5074729;28;20044;-49
2022/10/15 06:58:56;;;;;;;14.52;11.18;;;25.00;94.30;;;;;;5059534;28;20033;-52
2022/10/15 07:01:22;;;;;;;14.88;10.93;;;25.00;95.10;;;;;;5071583;28;20047;-51
2022/10/15 07:03:49;;;;;;;16.35;11.15;;;24.40;95.00;;;;;;5061781;28;20068;-48
2022/10/15 07:06:15;;;;;;;15.23;10.23;;;24.50;95.40;;;;;;5075685;28;20459;-52
2022/10/15 07:08:40;;;;;;;16.27;10.27;;;24.60;95.90;;;;;;5050814;28;20068;-51
2022/10/15 07:11:10;;;;;;;14.15;9.45;;;25.80;95.40;;;;;;5060468;28;20072;-49
2022/10/15 07:13:37;;;;;;;13.98;8.65;;;24.10;95.30;;;;;;5064227;28;20043;-51
2022/10/15 07:16:04;;;;;;;12.93;9.90;;;23.30;95.80;;;;;;5077488;28;20029;-50
2022/10/15 07:18:31;;;;;;;11.52;9.60;;;23.90;96.90;;;;;;5066691;28;20472;-52
2022/10/15 07:20:57;;;;;;;11.65;8.13;;;24.90;95.90;;;;;;5067160;28;20036;-50
2022/10/15 07:23:23;;;;;;;11.45;7.32;;;25.20;95.50;;;;;;5063455;28;20017;-52
2022/10/15 07:25:48;;;;;;;9.13;7.03;;;23.90;95.20;;;;;;5068494;28;20035;-51
2022/10/15 07:28:14;;;;;;;11.80;7.93;;;;;;;;;;5081582;28;20121;-51
2022/10/15 07:30:41;;;;;;;12.10;8.50;;;;;;;;;;5073092;28;20044;-48
2022/10/15 07:33:06;;;;;;;13.65;8.80;;;23.20;99.90;;;;;;5067847;28;20484;-49
2022/10/15 07:35:32;;;;;;;10.73;7.13;;;24.80;97.30;;;;;;5055399;28;20044;-50
2022/10/15 07:38:02;;;;;;;11.30;6.95;;;23.00;96.90;;;;;;5059389;28;20118;-48
2022/10/15 07:40:28;;;;;;;11.07;7.28;;;;;;;;;;5053624;28;20032;-53
2022/10/15 07:42:58;;;;;;;11.63;7.63;;;21.70;97.90;;;;;;5048348;28;20082;-51
2022/10/15 07:45:25;;;;;;;13.07;7.30;;;22.40;98.30;;;;;;5053394;28;20028;-49
2022/10/15 07:47:52;;;;;;;12.27;8.10;;;23.50;97.70;;;;;;5059810;28;20392;-51
2022/10/15 07:50:18;;;;;;;11.32;8.10;;;23.00;97.80;;;;;;5058145;28;20369;-53
2022/10/15 07:52:44;;;;;;;10.63;7.50;;;22.80;98.40;;;;;;5026561;28;20085;-52
2022/10/15 07:55:10;;;;;;;10.50;7.43;;;22.60;97.90;;;;;;5030789;28;20184;-50
2022/10/15 07:57:36;;;;;;;12.23;7.30;;;22.20;98.80;;;;;;5031967;28;20141;-51
2022/10/15 08:00:04;;;;;;;9.60;6.72;;;23.30;97.60;;;;;;5037396;28;20040;-49
2022/10/15 08:02:30;;;;;;;9.23;7.38;;;23.40;96.70;;;;;;5031147;28;20049;-47
2022/10/15 08:04:56;;;;;;;8.95;6.75;;;23.60;97.10;;;;;;5035898;28;20040;-48
2022/10/15 08:07:21;;;;;;;8.45;6.55;;;22.90;96.80;;;;;;5038589;28;20120;-51
2022/10/15 08:09:47;;;;;;;9.98;7.05;;;22.30;99.90;;;;;;5033400;28;20036;-51
2022/10/15 08:12:13;;;;;;;6.75;5.25;;;22.20;98.20;;;;;;5029888;28;20524;-52
2022/10/15 08:14:39;;;;;;;14.32;7.95;;;;;;;;;;5028533;28;20086;-49
2022/10/15 08:17:05;;;;;;;14.10;8.95;;;21.60;99.90;;;;;;5031568;28;20069;-51
2022/10/15 08:19:31;;;;;;;38.20;27.27;;;22.50;99.90;;;;;;5037679;28;20496;-48
2022/10/15 08:21:57;;;;;;;16.35;12.35;;;22.60;97.70;;;;;;5031695;28;20053;-52
2022/10/15 08:24:24;;;;;;;12.95;8.40;;;;;;;;;;5051269;28;20399;-49
2022/10/15 08:26:50;;;;;;;16.45;11.25;;;;;;;;;;5063562;28;20067;-48
2022/10/15 08:29:15;;;;;;;21.50;13.25;;;25.10;96.50;;;;;;5061457;28;20025;-51
2022/10/15 08:31:42;;;;;;;8.02;5.70;;;;;;;;;;5064263;28;20039;-53
2022/10/15 08:34:08;;;;;;;21.58;12.45;;;;;;;;;;5065568;28;20059;-51
2022/10/15 08:36:34;;;;;;;16.67;10.85;;;23.20;96.00;;;;;;5047771;28;20036;-51
2022/10/15 08:39:00;;;;;;;11.20;8.38;;;;;;;;;;5059778;28;20399;-51
2022/10/15 08:41:31;;;;;;;9.10;7.22;;;25.20;95.80;;;;;;5062632;28;20491;-53
2022/10/15 08:43:58;;;;;;;7.68;4.85;;;24.20;94.90;;;;;;5059550;28;20047;-52
2022/10/15 08:46:36;;;;;;;10.93;8.90;;;22.40;95.60;;;;;;5056941;28;20476;-53
2022/10/15 08:49:03;;;;;;;13.68;7.97;;;22.70;96.00;;;;;;5072051;28;20037;-53
2022/10/15 08:51:47;;;;;;;9.43;7.22;;;23.10;96.60;;;;;;5063299;28;20048;-49
2022/10/15 08:54:16;;;;;;;12.52;7.85;;;22.40;96.50;;;;;;5065411;28;20044;-51
2022/10/15 08:56:50;;;;;;;17.55;9.25;;;23.10;97.40;;;;;;5062605;28;20064;-51
2022/10/15 08:59:33;;;;;;;7.07;5.57;;;23.00;96.60;;;;;;5060480;28;20115;-49
2022/10/15 09:02:02;;;;;;;17.08;8.73;;;;;;;;;;5069262;28;20049;-52
2022/10/15 09:04:40;;;;;;;13.77;8.05;;;25.10;95.50;;;;;;5058875;28;20032;-51
2022/10/15 09:07:18;;;;;;;12.13;5.50;;;24.80;95.40;;;;;;5072194;28;20052;-49
2022/10/15 09:09:51;;;;;;;11.15;7.47;;;;;;;;;;5056644;28;20476;-50
2022/10/15 09:12:29;;;;;;;7.20;5.00;;;;;;;;;;5052942;28;20029;-50
2022/10/15 09:14:57;;;;;;;12.85;7.45;;;23.00;95.40;;;;;;5069882;28;20044;-48
2022/10/15 09:17:24;;;;;;;9.35;6.32;;;;;;;;;;5070249;28;20131;-49
2022/10/15 09:19:55;;;;;;;10.05;6.93;;;24.20;96.30;;;;;;5046407;28;20033;-51
2022/10/15 09:22:24;;;;;;;8.50;5.95;;;;;;;;;;5056841;28;20033;-50
2022/10/15 09:24:50;;;;;;;10.27;6.07;;;;;;;;;;5074389;28;20381;-51
2022/10/15 09:27:35;;;;;;;8.27;5.88;;;24.30;94.10;;;;;;5058606;28;20038;-52
2022/10/15 09:30:29;;;;;;;15.82;8.55;;;24.50;94.30;;;;;;5069895;28;20064;-51
2022/10/15 09:33:05;;;;;;;14.18;8.60;;;25.00;94.40;;;;;;5069475;28;20119;-54
2022/10/15 09:35:38;;;;;;;9.52;7.25;;;24.50;95.00;;;;;;5082541;28;20065;-51
2022/10/15 09:38:04;;;;;;;11.60;6.80;;;;;;;;;;5060104;28;20531;-51
2022/10/15 09:40:58;;;;;;;9.27;7.03;;;25.70;93.70;;;;;;5059213;28;20124;-47
2022/10/15 09:43:30;;;;;;;9.23;6.70;;;25.60;93.90;;;;;;5056453;28;20032;-48
2022/10/15 09:45:57;;;;;;;6.80;6.00;;;25.30;93.50;;;;;;5057503;28;20541;-47
2022/10/15 09:48:24;;;;;;;17.60;6.53;;;25.50;93.40;;;;;;5058380;28;20032;-48
2022/10/15 09:51:19;;;;;;;8.63;6.70;;;25.30;93.20;;;;;;5060008;28;20496;-47
2022/10/15 09:54:02;;;;;;;8.73;6.57;;;24.90;93.30;;;;;;5061064;28;20029;-47
2022/10/15 09:56:38;;;;;;;7.18;6.22;;;24.50;93.80;;;;;;5059181;28;20039;-47
2022/10/15 09:59:04;;;;;;;7.15;5.72;;;25.30;93.50;;;;;;5058387;28;20036;-47
2022/10/15 10:01:32;;;;;;;14.60;6.10;;;24.80;93.50;;;;;;5048446;28;20444;-47
2022/10/15 10:04:19;;;;;;;7.03;6.05;;;24.70;93.60;;;;;;5053217;28;20385;-47
2022/10/15 10:06:53;;;;;;;9.20;6.05;;;25.00;93.20;;;;;;5061249;28;20071;-47
2022/10/15 10:09:21;;;;;;;7.47;5.60;;;;;;;;;;5070998;28;20036;-48
2022/10/15 10:11:51;;;;;;;8.95;5.60;;;26.40;99.90;;;;;;5077543;28;20431;-47
2022/10/15 10:14:51;;;;;;;5.57;4.55;;;25.80;93.20;;;;;;5082375;28;20028;-47
2022/10/15 10:17:20;;;;;;;6.63;5.57;;;24.90;92.50;;;;;;4987438;28;20121;-49
2022/10/15 10:20:07;;;;;;;8.23;5.88;;;25.00;92.90;;;;;;4990801;28;20133;-48
2022/10/15 10:22:48;;;;;;;9.50;6.00;;;25.70;92.90;;;;;;4997796;28;20555;-48
2022/10/15 10:25:26;;;;;;;7.68;5.38;;;;;;;;;;4994458;28;20447;-48
2022/10/15 10:27:56;;;;;;;8.43;4.65;;;;;;;;;;4997180;28;20097;-48
2022/10/15 10:30:22;;;;;;;7.78;4.72;;;27.30;99.90;;;;;;4990015;28;20077;-48
2022/10/15 10:32:55;;;;;;;9.88;4.57;;;27.30;91.40;;;;;;4973938;28;20065;-48
2022/10/15 10:35:26;;;;;;;8.20;4.22;;;26.70;91.50;;;;;;4994398;28;20034;-48
2022/10/15 10:37:52;;;;;;;5.70;3.38;;;;;;;;;;5000591;28;20048;-48
2022/10/15 10:40:26;;;;;;;6.28;4.55;;;23.70;91.70;;;;;;4997270;28;20041;-48
2022/10/15 10:43:14;;;;;;;6.40;4.75;;;24.20;92.70;;;;;;4992815;28;20037;-48
2022/10/15 10:45:57;;;;;;;6.03;4.65;;;23.90;92.60;;;;;;4962481;28;20768;-47
2022/10/15 10:48:27;;;;;;;11.43;5.15;;;24.50;92.90;;;;;;4991093;28;20034;-47
2022/10/15 10:51:08;;;;;;;10.93;4.28;;;24.10;93.10;;;;;;5005333;28;20038;-47
2022/10/15 10:53:43;;;;;;;5.30;4.75;;;24.00;92.90;;;;;;5015113;28;20407;-47
2022/10/15 10:56:12;;;;;;;6.93;4.45;;;24.20;92.70;;;;;;5064742;28;20459;-47
2022/10/15 10:58:38;;;;;;;7.80;5.13;;;25.10;92.80;;;;;;5058101;28;20385;-47
2022/10/15 11:01:04;;;;;;;4.00;3.13;;;25.10;92.60;;;;;;5063830;28;20022;-47
2022/10/15 11:03:32;;;;;;;6.30;4.60;;;24.50;92.50;;;;;;5076889;28;20557;-47
2022/10/15 11:06:22;;;;;;;6.72;4.43;;;24.30;92.50;;;;;;5060375;28;20045;-47
2022/10/15 11:09:13;;;;;;;6.10;4.45;;;25.00;92.30;;;;;;5057879;28;20028;-47
2022/10/15 11:11:45;;;;;;;7.97;4.63;;;25.30;92.00;;;;;;5048653;28;20095;-47
2022/10/15 11:14:41;;;;;;;9.02;4.20;;;24.80;91.70;;;;;;5062864;28;20094;-47
2022/10/15 11:17:45;;;;;;;6.78;4.32;;;25.00;91.50;;;;;;5055918;28;20040;-47
2022/10/15 11:20:43;;;;;;;10.30;4.05;;;24.50;91.60;;;;;;5010821;28;20040;-47
2022/10/15 11:23:21;;;;;;;6.72;4.20;;;25.10;91.40;;;;;;5011094;28;20131;-51
2022/10/15 11:26:02;;;;;;;6.88;4.18;;;25.20;91.70;;;;;;5032711;28;20493;-48
2022/10/15 11:28:49;;;;;;;5.47;4.00;;;25.40;92.00;;;;;;5052742;28;20086;-49
2022/10/15 11:31:29;;;;;;;7.20;3.97;;;25.00;92.00;;;;;;5051440;28;20037;-49
2022/10/15 11:34:19;;;;;;;7.10;4.30;;;25.00;91.60;;;;;;5052199;28;20056;-48
2022/10/15 11:36:58;;;;;;;5.15;4.00;;;25.50;91.60;;;;;;5047323;28;20087;-49
2022/10/15 11:39:38;;;;;;;5.35;3.63;;;25.40;91.40;;;;;;5052846;28;20043;-49
2022/10/15 11:42:31;;;;;;;7.35;3.40;;;25.50;91.30;;;;;;5050052;28;20130;-49
2022/10/15 11:45:15;;;;;;;6.25;3.58;;;25.00;91.30;;;;;;5048113;28;20029;-48
2022/10/15 11:47:56;;;;;;;7.05;3.80;;;25.40;91.20;;;;;;5049549;28;20036;-49
2022/10/15 11:50:38;;;;;;;5.88;3.60;;;26.20;91.50;;;;;;5050931;28;20056;-49
2022/10/15 11:53:22;;;;;;;5.93;3.47;;;25.90;90.20;;;;;;5053866;28;20450;-49
2022/10/15 11:56:09;;;;;;;7.68;3.88;;;26.40;90.60;;;;;;5055898;28;20024;-48
2022/10/15 11:58:54;;;;;;;2.67;2.13;;;26.20;89.60;;;;;;5053188;28;20471;-50
2022/10/15 12:01:45;;;;;;;8.25;3.50;;;25.00;90.40;;;;;;5054519;28;20475;-48
2022/10/15 12:04:34;;;;;;;7.68;3.83;;;25.10;91.00;;;;;;5062517;28;20210;-48
2022/10/15 12:07:03;;;;;;;5.70;3.35;;;25.50;90.60;;;;;;5059951;28;20427;-50
2022/10/15 12:09:38;;;;;;;7.38;3.15;;;25.70;90.30;;;;;;5057141;28;20530;-48
2022/10/15 12:12:16;;;;;;;3.78;2.47;;;25.00;90.20;;;;;;5061777;28;20032;-48
2022/10/15 12:14:51;;;;;;;5.65;3.47;;;24.70;90.80;;;;;;5060032;28;20495;-48
2022/10/15 12:17:36;;;;;;;7.55;3.65;;;24.70;91.80;;;;;;5068927;28;20079;-49
2022/10/15 12:20:22;;;;;;;5.47;3.33;;;25.10;90.80;;;;;;5056956;28;20095;-48
2022/10/15 12:22:56;;;;;;;4.10;3.13;;;25.20;91.20;;;;;;5027915;28;20471;-52
2022/10/15 12:25:34;;;;;;;7.85;3.70;;;24.80;90.50;;;;;;5010566;28;20053;-49
2022/10/15 12:28:02;;;;;;;8.43;3.63;;;24.40;90.50;;;;;;5034176;28;20049;-53
2022/10/15 12:30:33;;;;;;;4.00;2.97;;;24.70;90.60;;;;;;5030192;28;20428;-50
2022/10/15 12:33:01;;;;;;;4.63;3.28;;;24.60;90.70;;;;;;5034373;28;20044;-50
2022/10/15 12:35:35;;;;;;;3.88;3.13;;;24.90;90.90;;;;;;5034285;28;20437;-51
2022/10/15 12:38:22;;;;;;;5.85;4.07;;;24.80;90.50;;;;;;5035654;28;20041;-50
2022/10/15 12:40:57;;;;;;;7.22;3.55;;;25.30;90.60;;;;;;5039069;28;20128;-52
2022/10/15 12:43:24;;;;;;;7.25;3.45;;;25.30;90.50;;;;;;5005278;28;20061;-52
2022/10/15 12:46:02;;;;;;;5.65;4.22;;;25.00;90.90;;;;;;5035169;28;20432;-50
2022/10/15 12:48:29;;;;;;;5.47;3.17;;;25.20;91.10;;;;;;5037361;28;20500;-50
2022/10/15 12:51:22;;;;;;;6.40;3.33;;;24.80;90.80;;;;;;5040010;28;20050;-51
2022/10/15 12:53:50;;;;;;;3.63;2.90;;;25.10;90.80;;;;;;5035413;28;20084;-50
2022/10/15 12:56:16;;;;;;;3.75;2.95;;;25.20;90.30;;;;;;5030736;28;20029;-51
2022/10/15 12:58:43;;;;;;;5.85;2.65;;;25.00;89.70;;;;;;5010649;28;20046;-51
2022/10/15 13:01:12;;;;;;;9.38;3.40;;;24.70;90.70;;;;;;5061048;28;20025;-50
2022/10/15 13:03:52;;;;;;;7.00;3.10;;;25.20;92.00;;;;;;5065662;28;20032;-51
2022/10/15 13:06:23;;;;;;;4.53;3.10;;;25.10;90.60;;;;;;5053421;28;20033;-50